sensor_id;sensor_type;location;lat;lon;timestamp;pressure;altitude;pressure_sealevel;temperature
71640;BMP280;60912;48.968;10.124;2024-02-26T00:00:28;94756.53;;;6.58
71640;BMP280;60912;48.968;10.124;2024-02-26T00:02:54;94752.19;;;6.55
71640;BMP280;60912;48.968;10.124;2024-02-26T00:05:20;94747.03;;;6.59
71640;BMP280;60912;48.968;10.124;2024-02-26T00:07:45;94747.47;;;6.55
71640;BMP280;60912;48.968;10.124;2024-02-26T00:10:10;94744.91;;;6.50
71640;BMP280;60912;48.968;10.124;2024-02-26T00:12:36;94746.31;;;6.58
71640;BMP280;60912;48.968;10.124;2024-02-26T00:15:01;94733.88;;;6.65
71640;BMP280;60912;48.968;10.124;2024-02-26T00:17:26;94737.81;;;6.71
71640;BMP280;60912;48.968;10.124;2024-02-26T00:19:52;94730.13;;;6.77
71640;BMP280;60912;48.968;10.124;2024-02-26T00:22:18;94727.84;;;6.83
71640;BMP280;60912;48.968;10.124;2024-02-26T00:24:43;94730.31;;;6.79
71640;BMP280;60912;48.968;10.124;2024-02-26T00:27:08;94733.78;;;6.80
71640;BMP280;60912;48.968;10.124;2024-02-26T00:29:34;94727.47;;;6.87
71640;BMP280;60912;48.968;10.124;2024-02-26T00:31:59;94731.94;;;6.82
71640;BMP280;60912;48.968;10.124;2024-02-26T00:34:25;94739.50;;;6.92
71640;BMP280;60912;48.968;10.124;2024-02-26T00:36:50;94742.41;;;6.94
71640;BMP280;60912;48.968;10.124;2024-02-26T00:39:15;94735.78;;;6.97
71640;BMP280;60912;48.968;10.124;2024-02-26T00:41:41;94740.97;;;6.93
71640;BMP280;60912;48.968;10.124;2024-02-26T00:44:06;94732.19;;;6.94
71640;BMP280;60912;48.968;10.124;2024-02-26T00:46:32;94740.97;;;6.93
71640;BMP280;60912;48.968;10.124;2024-02-26T00:48:57;94741.25;;;6.79
71640;BMP280;60912;48.968;10.124;2024-02-26T00:51:23;94734.53;;;6.73
71640;BMP280;60912;48.968;10.124;2024-02-26T00:53:48;94740.56;;;6.71
71640;BMP280;60912;48.968;10.124;2024-02-26T00:56:13;94739.28;;;6.72
71640;BMP280;60912;48.968;10.124;2024-02-26T00:58:39;94734.88;;;6.77
71640;BMP280;60912;48.968;10.124;2024-02-26T01:01:04;94735.94;;;6.81
71640;BMP280;60912;48.968;10.124;2024-02-26T01:03:29;94737.41;;;6.82
71640;BMP280;60912;48.968;10.124;2024-02-26T01:05:55;94737.69;;;6.86
71640;BMP280;60912;48.968;10.124;2024-02-26T01:08:20;94740.97;;;6.93
71640;BMP280;60912;48.968;10.124;2024-02-26T01:10:46;94735.50;;;6.93
71640;BMP280;60912;48.968;10.124;2024-02-26T01:13:11;94731.28;;;6.92
71640;BMP280;60912;48.968;10.124;2024-02-26T01:15:36;94735.78;;;6.79
71640;BMP280;60912;48.968;10.124;2024-02-26T01:18:02;94731.97;;;6.75
71640;BMP280;60912;48.968;10.124;2024-02-26T01:20:27;94734.06;;;6.84
71640;BMP280;60912;48.968;10.124;2024-02-26T01:22:53;94718.88;;;6.91
71640;BMP280;60912;48.968;10.124;2024-02-26T01:25:18;94720.16;;;6.90
71640;BMP280;60912;48.968;10.124;2024-02-26T01:27:43;94726.09;;;6.78
71640;BMP280;60912;48.968;10.124;2024-02-26T01:30:10;94726.66;;;6.77
71640;BMP280;60912;48.968;10.124;2024-02-26T01:32:35;94721.38;;;6.79
71640;BMP280;60912;48.968;10.124;2024-02-26T01:35:01;94707.84;;;6.81
71640;BMP280;60912;48.968;10.124;2024-02-26T01:37:28;94708.97;;;6.78
71640;BMP280;60912;48.968;10.124;2024-02-26T01:39:55;94723.53;;;6.80
71640;BMP280;60912;48.968;10.124;2024-02-26T01:42:20;94723.19;;;6.76
71640;BMP280;60912;48.968;10.124;2024-02-26T01:44:46;94710.63;;;6.73
71640;BMP280;60912;48.968;10.124;2024-02-26T01:47:11;94705.16;;;6.73
71640;BMP280;60912;48.968;10.124;2024-02-26T01:49:38;94709.81;;;6.63
71640;BMP280;60912;48.968;10.124;2024-02-26T01:52:06;94708.53;;;6.64
71640;BMP280;60912;48.968;10.124;2024-02-26T01:54:36;94703.97;;;6.59
71640;BMP280;60912;48.968;10.124;2024-02-26T01:57:02;94703.59;;;6.63
71640;BMP280;60912;48.968;10.124;2024-02-26T01:59:29;94709.81;;;6.63
71640;BMP280;60912;48.968;10.124;2024-02-26T02:01:57;94712.88;;;6.67
71640;BMP280;60912;48.968;10.124;2024-02-26T02:04:24;94720.09;;;6.72
71640;BMP280;60912;48.968;10.124;2024-02-26T02:06:50;94723.38;;;6.78
71640;BMP280;60912;48.968;10.124;2024-02-26T02:09:18;94725.00;;;6.81
71640;BMP280;60912;48.968;10.124;2024-02-26T02:11:43;94722.09;;;6.79
71640;BMP280;60912;48.968;10.124;2024-02-26T02:14:09;94722.47;;;6.76
71640;BMP280;60912;48.968;10.124;2024-02-26T02:16:35;94710.28;;;6.69
71640;BMP280;60912;48.968;10.124;2024-02-26T02:19:00;94711.59;;;6.68
71640;BMP280;60912;48.968;10.124;2024-02-26T02:21:25;94720.09;;;6.72
71640;BMP280;60912;48.968;10.124;2024-02-26T02:23:51;94710.03;;;6.82
71640;BMP280;60912;48.968;10.124;2024-02-26T02:26:16;94705.59;;;6.87
71640;BMP280;60912;48.968;10.124;2024-02-26T02:28:42;94700.47;;;6.83
71640;BMP280;60912;48.968;10.124;2024-02-26T02:31:07;94714.16;;;6.66
71640;BMP280;60912;48.968;10.124;2024-02-26T02:33:34;94709.81;;;6.63
71640;BMP280;60912;48.968;10.124;2024-02-26T02:35:59;94715.19;;;6.54
71640;BMP280;60912;48.968;10.124;2024-02-26T02:38:25;94718.28;;;6.50
71640;BMP280;60912;48.968;10.124;2024-02-26T02:40:53;94711.63;;;6.43
71640;BMP280;60912;48.968;10.124;2024-02-26T02:43:19;94712.63;;;6.48
71640;BMP280;60912;48.968;10.124;2024-02-26T02:45:44;94702.97;;;6.55
71640;BMP280;60912;48.968;10.124;2024-02-26T02:48:10;94703.94;;;6.67
71640;BMP280;60912;48.968;10.124;2024-02-26T02:50:36;94708.34;;;6.62
71640;BMP280;60912;48.968;10.124;2024-02-26T02:53:01;94707.06;;;6.63
71640;BMP280;60912;48.968;10.124;2024-02-26T02:55:27;94713.03;;;6.69
71640;BMP280;60912;48.968;10.124;2024-02-26T02:57:52;94706.03;;;6.76
71640;BMP280;60912;48.968;10.124;2024-02-26T03:00:18;94706.69;;;6.67
71640;BMP280;60912;48.968;10.124;2024-02-26T03:02:43;94709.97;;;6.65
71640;BMP280;60912;48.968;10.124;2024-02-26T03:05:10;94697.41;;;6.62
71640;BMP280;60912;48.968;10.124;2024-02-26T03:07:35;94700.38;;;6.57
71640;BMP280;60912;48.968;10.124;2024-02-26T03:10:01;94708.00;;;6.58
71640;BMP280;60912;48.968;10.124;2024-02-26T03:12:26;94714.91;;;6.59
71640;BMP280;60912;48.968;10.124;2024-02-26T03:14:53;94717.66;;;6.59
71640;BMP280;60912;48.968;10.124;2024-02-26T03:17:19;94720.38;;;6.59
71640;BMP280;60912;48.968;10.124;2024-02-26T03:19:45;94719.19;;;6.53
71640;BMP280;60912;48.968;10.124;2024-02-26T03:22:12;94728.13;;;6.53
71640;BMP280;60912;48.968;10.124;2024-02-26T03:24:37;94729.59;;;6.54
71640;BMP280;60912;48.968;10.124;2024-02-26T03:27:03;94724.22;;;6.64
71640;BMP280;60912;48.968;10.124;2024-02-26T03:29:30;94721.09;;;6.67
71640;BMP280;60912;48.968;10.124;2024-02-26T03:31:56;94725.44;;;6.70
71640;BMP280;60912;48.968;10.124;2024-02-26T03:34:21;94731.03;;;6.55
71640;BMP280;60912;48.968;10.124;2024-02-26T03:36:46;94728.88;;;6.46
71640;BMP280;60912;48.968;10.124;2024-02-26T03:39:12;94728.47;;;6.57
71640;BMP280;60912;48.968;10.124;2024-02-26T03:41:37;94735.72;;;6.62
71640;BMP280;60912;48.968;10.124;2024-02-26T03:44:03;94732.78;;;6.60
71640;BMP280;60912;48.968;10.124;2024-02-26T03:46:28;94741.25;;;6.55
71640;BMP280;60912;48.968;10.124;2024-02-26T03:48:54;94750.75;;;6.46
71640;BMP280;60912;48.968;10.124;2024-02-26T03:51:19;94751.56;;;6.39
71640;BMP280;60912;48.968;10.124;2024-02-26T03:53:44;94748.03;;;6.46
71640;BMP280;60912;48.968;10.124;2024-02-26T03:56:13;94745.47;;;6.48
71640;BMP280;60912;48.968;10.124;2024-02-26T03:58:38;94737.19;;;6.31
71640;BMP280;60912;48.968;10.124;2024-02-26T04:01:04;94742.06;;;6.40
71640;BMP280;60912;48.968;10.124;2024-02-26T04:03:29;94740.25;;;6.35
71640;BMP280;60912;48.968;10.124;2024-02-26T04:05:54;94742.56;;;6.46
71640;BMP280;60912;48.968;10.124;2024-02-26T04:08:20;94739.28;;;6.47
71640;BMP280;60912;48.968;10.124;2024-02-26T04:10:45;94741.63;;;6.51
71640;BMP280;60912;48.968;10.124;2024-02-26T04:13:10;94742.13;;;6.57
71640;BMP280;60912;48.968;10.124;2024-02-26T04:15:36;94748.09;;;6.63
71640;BMP280;60912;48.968;10.124;2024-02-26T04:18:01;94750.75;;;6.54
71640;BMP280;60912;48.968;10.124;2024-02-26T04:20:27;94755.13;;;6.49
71640;BMP280;60912;48.968;10.124;2024-02-26T04:22:53;94762.97;;;6.53
71640;BMP280;60912;48.968;10.124;2024-02-26T04:25:18;94751.66;;;6.48
71640;BMP280;60912;48.968;10.124;2024-02-26T04:27:43;94765.91;;;6.47
71640;BMP280;60912;48.968;10.124;2024-02-26T04:30:09;94764.44;;;6.46
71640;BMP280;60912;48.968;10.124;2024-02-26T04:32:34;94770.34;;;6.42
71640;BMP280;60912;48.968;10.124;2024-02-26T04:35:01;94772.50;;;6.44
71640;BMP280;60912;48.968;10.124;2024-02-26T04:37:27;94767.53;;;6.50
71640;BMP280;60912;48.968;10.124;2024-02-26T04:39:59;94774.19;;;6.64
71640;BMP280;60912;48.968;10.124;2024-02-26T04:42:25;94772.28;;;6.74
71640;BMP280;60912;48.968;10.124;2024-02-26T04:44:51;94772.72;;;6.88
71640;BMP280;60912;48.968;10.124;2024-02-26T04:47:16;94763.16;;;6.97
71640;BMP280;60912;48.968;10.124;2024-02-26T04:49:42;94769.94;;;6.96
71640;BMP280;60912;48.968;10.124;2024-02-26T04:52:07;94759.59;;;6.86
71640;BMP280;60912;48.968;10.124;2024-02-26T04:54:32;94778.38;;;6.65
71640;BMP280;60912;48.968;10.124;2024-02-26T04:56:58;94769.66;;;6.59
71640;BMP280;60912;48.968;10.124;2024-02-26T04:59:24;94760.88;;;6.68
71640;BMP280;60912;48.968;10.124;2024-02-26T05:01:49;94752.66;;;6.68
71640;BMP280;60912;48.968;10.124;2024-02-26T05:04:16;94763.34;;;6.49
71640;BMP280;60912;48.968;10.124;2024-02-26T05:06:42;94765.88;;;6.55
71640;BMP280;60912;48.968;10.124;2024-02-26T05:09:07;94751.19;;;6.42
71640;BMP280;60912;48.968;10.124;2024-02-26T05:11:32;94748.75;;;6.54
71640;BMP280;60912;48.968;10.124;2024-02-26T05:13:58;94731.78;;;6.56
71640;BMP280;60912;48.968;10.124;2024-02-26T05:16:23;94730.22;;;6.62
71640;BMP280;60912;48.968;10.124;2024-02-26T05:18:50;94733.16;;;6.64
71640;BMP280;60912;48.968;10.124;2024-02-26T05:21:15;94735.31;;;6.41
71640;BMP280;60912;48.968;10.124;2024-02-26T05:23:40;94737.72;;;6.37
71640;BMP280;60912;48.968;10.124;2024-02-26T05:26:08;94745.63;;;6.25
71640;BMP280;60912;48.968;10.124;2024-02-26T05:28:34;94740.75;;;6.16
71640;BMP280;60912;48.968;10.124;2024-02-26T05:30:59;94746.53;;;6.28
71640;BMP280;60912;48.968;10.124;2024-02-26T05:33:25;94740.44;;;6.37
71640;BMP280;60912;48.968;10.124;2024-02-26T05:35:50;94737.25;;;6.48
71640;BMP280;60912;48.968;10.124;2024-02-26T05:38:16;94732.97;;;6.62
71640;BMP280;60912;48.968;10.124;2024-02-26T05:40:41;94711.72;;;6.53
71640;BMP280;60912;48.968;10.124;2024-02-26T05:43:06;94717.19;;;6.53
71640;BMP280;60912;48.968;10.124;2024-02-26T05:45:32;94731.78;;;6.48
71640;BMP280;60912;48.968;10.124;2024-02-26T05:47:58;94749.00;;;6.41
71640;BMP280;60912;48.968;10.124;2024-02-26T05:50:23;94781.84;;;6.33
71640;BMP280;60912;48.968;10.124;2024-02-26T05:52:48;94778.56;;;6.35
71640;BMP280;60912;48.968;10.124;2024-02-26T05:55:14;94776.56;;;6.35
71640;BMP280;60912;48.968;10.124;2024-02-26T05:57:39;94769.44;;;6.40
71640;BMP280;60912;48.968;10.124;2024-02-26T06:00:05;94776.00;;;6.37
71640;BMP280;60912;48.968;10.124;2024-02-26T06:02:31;94770.03;;;6.31
71640;BMP280;60912;48.968;10.124;2024-02-26T06:04:56;94754.19;;;6.29
71640;BMP280;60912;48.968;10.124;2024-02-26T06:07:22;94764.13;;;6.42
71640;BMP280;60912;48.968;10.124;2024-02-26T06:09:48;94765.34;;;6.56
71640;BMP280;60912;48.968;10.124;2024-02-26T06:12:14;94759.13;;;6.56
71640;BMP280;60912;48.968;10.124;2024-02-26T06:14:39;94761.28;;;6.57
71640;BMP280;60912;48.968;10.124;2024-02-26T06:17:04;94769.50;;;6.57
71640;BMP280;60912;48.968;10.124;2024-02-26T06:19:30;94777.81;;;6.42
71640;BMP280;60912;48.968;10.124;2024-02-26T06:21:55;94775.22;;;6.44
71640;BMP280;60912;48.968;10.124;2024-02-26T06:24:20;94772.75;;;6.31
71640;BMP280;60912;48.968;10.124;2024-02-26T06:26:47;94770.75;;;6.31
71640;BMP280;60912;48.968;10.124;2024-02-26T06:29:13;94773.88;;;6.28
71640;BMP280;60912;48.968;10.124;2024-02-26T06:31:38;94773.16;;;6.27
71640;BMP280;60912;48.968;10.124;2024-02-26T06:34:03;94785.59;;;6.45
71640;BMP280;60912;48.968;10.124;2024-02-26T06:36:29;94778.13;;;6.46
71640;BMP280;60912;48.968;10.124;2024-02-26T06:38:56;94782.38;;;6.39
71640;BMP280;60912;48.968;10.124;2024-02-26T06:41:21;94791.06;;;6.53
71640;BMP280;60912;48.968;10.124;2024-02-26T06:43:52;94796.53;;;6.53
71640;BMP280;60912;48.968;10.124;2024-02-26T06:46:17;94820.75;;;6.57
71640;BMP280;60912;48.968;10.124;2024-02-26T06:48:43;94814.28;;;6.69
71640;BMP280;60912;48.968;10.124;2024-02-26T06:51:08;94827.13;;;6.84
71640;BMP280;60912;48.968;10.124;2024-02-26T06:53:33;94828.84;;;6.79
71640;BMP280;60912;48.968;10.124;2024-02-26T06:55:59;94829.50;;;6.87
71640;BMP280;60912;48.968;10.124;2024-02-26T06:58:24;94839.53;;;6.93
71640;BMP280;60912;48.968;10.124;2024-02-26T07:00:49;94845.09;;;7.02
71640;BMP280;60912;48.968;10.124;2024-02-26T07:03:15;94843.81;;;7.03
71640;BMP280;60912;48.968;10.124;2024-02-26T07:05:40;94845.44;;;7.06
71640;BMP280;60912;48.968;10.124;2024-02-26T07:08:06;94835.53;;;7.11
71640;BMP280;60912;48.968;10.124;2024-02-26T07:10:31;94827.66;;;7.15
71640;BMP280;60912;48.968;10.124;2024-02-26T07:12:57;94820.28;;;7.00
71640;BMP280;60912;48.968;10.124;2024-02-26T07:15:22;94833.25;;;7.00
71640;BMP280;60912;48.968;10.124;2024-02-26T07:17:47;94834.88;;;7.03
71640;BMP280;60912;48.968;10.124;2024-02-26T07:20:14;94853.75;;;6.91
71640;BMP280;60912;48.968;10.124;2024-02-26T07:22:40;94839.16;;;6.88
71640;BMP280;60912;48.968;10.124;2024-02-26T07:25:06;94827.75;;;6.82
71640;BMP280;60912;48.968;10.124;2024-02-26T07:27:34;94835.50;;;6.94
71640;BMP280;60912;48.968;10.124;2024-02-26T07:29:59;94841.28;;;6.98
71640;BMP280;60912;48.968;10.124;2024-02-26T07:32:24;94839.63;;;7.02
71640;BMP280;60912;48.968;10.124;2024-02-26T07:34:50;94845.13;;;7.19
71640;BMP280;60912;48.968;10.124;2024-02-26T07:37:15;94842.41;;;7.19
71640;BMP280;60912;48.968;10.124;2024-02-26T07:39:41;94843.81;;;7.28
71640;BMP280;60912;48.968;10.124;2024-02-26T07:42:06;94845.28;;;7.46
71640;BMP280;60912;48.968;10.124;2024-02-26T07:44:32;94846.34;;;7.51
71640;BMP280;60912;48.968;10.124;2024-02-26T07:46:58;94847.91;;;7.37
71640;BMP280;60912;48.968;10.124;2024-02-26T07:49:23;94849.06;;;7.51
71640;BMP280;60912;48.968;10.124;2024-02-26T07:51:49;94849.50;;;7.64
71640;BMP280;60912;48.968;10.124;2024-02-26T07:54:14;94854.34;;;7.74
71640;BMP280;60912;48.968;10.124;2024-02-26T07:56:41;94845.00;;;7.77
71640;BMP280;60912;48.968;10.124;2024-02-26T07:59:06;94842.97;;;7.77
71640;BMP280;60912;48.968;10.124;2024-02-26T08:01:32;94836.59;;;7.75
71640;BMP280;60912;48.968;10.124;2024-02-26T08:03:58;94839.72;;;7.88
71640;BMP280;60912;48.968;10.124;2024-02-26T08:06:24;94846.94;;;7.84
71640;BMP280;60912;48.968;10.124;2024-02-26T08:08:50;94844.81;;;7.92
71640;BMP280;60912;48.968;10.124;2024-02-26T08:11:15;94845.16;;;7.96
71640;BMP280;60912;48.968;10.124;2024-02-26T08:13:41;94842.88;;;8.02
71640;BMP280;60912;48.968;10.124;2024-02-26T08:16:06;94845.44;;;8.00
71640;BMP280;60912;48.968;10.124;2024-02-26T08:18:32;94838.28;;;7.87
71640;BMP280;60912;48.968;10.124;2024-02-26T08:20:57;94831.13;;;8.09
71640;BMP280;60912;48.968;10.124;2024-02-26T08:23:22;94844.09;;;8.35
71640;BMP280;60912;48.968;10.124;2024-02-26T08:25:48;94843.34;;;8.52
71640;BMP280;60912;48.968;10.124;2024-02-26T08:28:13;94848.72;;;8.86
71640;BMP280;60912;48.968;10.124;2024-02-26T08:30:39;94848.22;;;8.44
71640;BMP280;60912;48.968;10.124;2024-02-26T08:33:04;94859.19;;;8.44
71640;BMP280;60912;48.968;10.124;2024-02-26T08:35:30;94854.19;;;8.50
71640;BMP280;60912;48.968;10.124;2024-02-26T08:37:55;94852.03;;;8.31
71640;BMP280;60912;48.968;10.124;2024-02-26T08:40:20;94855.47;;;8.49
71640;BMP280;60912;48.968;10.124;2024-02-26T08:42:46;94861.22;;;8.43
71640;BMP280;60912;48.968;10.124;2024-02-26T08:45:11;94862.00;;;8.53
71640;BMP280;60912;48.968;10.124;2024-02-26T08:47:38;94852.78;;;8.85
71640;BMP280;60912;48.968;10.124;2024-02-26T08:50:04;94859.66;;;8.77
71640;BMP280;60912;48.968;10.124;2024-02-26T08:52:30;94871.22;;;8.48
71640;BMP280;60912;48.968;10.124;2024-02-26T08:54:55;94874.75;;;8.59
71640;BMP280;60912;48.968;10.124;2024-02-26T08:57:21;94887.47;;;8.64
71640;BMP280;60912;48.968;10.124;2024-02-26T08:59:46;94875.66;;;8.71
71640;BMP280;60912;48.968;10.124;2024-02-26T09:02:11;94886.81;;;8.73
71640;BMP280;60912;48.968;10.124;2024-02-26T09:04:36;94891.13;;;8.66
71640;BMP280;60912;48.968;10.124;2024-02-26T09:07:02;94889.47;;;8.80
71640;BMP280;60912;48.968;10.124;2024-02-26T09:09:27;94893.81;;;8.83
71640;BMP280;60912;48.968;10.124;2024-02-26T09:11:53;94894.56;;;8.93
71640;BMP280;60912;48.968;10.124;2024-02-26T09:14:20;94889.22;;;9.22
71640;BMP280;60912;48.968;10.124;2024-02-26T09:16:46;94893.34;;;9.14
71640;BMP280;60912;48.968;10.124;2024-02-26T09:19:13;94888.66;;;9.33
71640;BMP280;60912;48.968;10.124;2024-02-26T09:21:43;94892.00;;;9.42
71640;BMP280;60912;48.968;10.124;2024-02-26T09:24:08;94904.09;;;9.29
71640;BMP280;60912;48.968;10.124;2024-02-26T09:26:33;94900.59;;;9.19
71640;BMP280;60912;48.968;10.124;2024-02-26T09:28:59;94906.81;;;9.19
71640;BMP280;60912;48.968;10.124;2024-02-26T09:31:24;94909.09;;;9.13
71640;BMP280;60912;48.968;10.124;2024-02-26T09:33:49;94904.84;;;9.29
71640;BMP280;60912;48.968;10.124;2024-02-26T09:36:15;94909.97;;;9.52
71640;BMP280;60912;48.968;10.124;2024-02-26T09:38:40;94903.81;;;9.71
71640;BMP280;60912;48.968;10.124;2024-02-26T09:41:05;94903.94;;;9.92
71640;BMP280;60912;48.968;10.124;2024-02-26T09:43:34;94902.66;;;9.93
71640;BMP280;60912;48.968;10.124;2024-02-26T09:46:00;94900.78;;;9.96
71640;BMP280;60912;48.968;10.124;2024-02-26T09:48:26;94909.47;;;9.73
71640;BMP280;60912;48.968;10.124;2024-02-26T09:50:53;94919.81;;;9.46
71640;BMP280;60912;48.968;10.124;2024-02-26T09:53:20;94922.00;;;9.57
71640;BMP280;60912;48.968;10.124;2024-02-26T09:55:46;94913.50;;;9.82
71640;BMP280;60912;48.968;10.124;2024-02-26T09:58:12;94919.88;;;10.13
71640;BMP280;60912;48.968;10.124;2024-02-26T10:00:46;94923.38;;;10.04
71640;BMP280;60912;48.968;10.124;2024-02-26T10:03:13;94919.72;;;9.92
71640;BMP280;60912;48.968;10.124;2024-02-26T10:05:41;94921.06;;;10.10
71640;BMP280;60912;48.968;10.124;2024-02-26T10:08:08;94923.50;;;10.25
71640;BMP280;60912;48.968;10.124;2024-02-26T10:10:34;94929.44;;;10.41
71640;BMP280;60912;48.968;10.124;2024-02-26T10:12:59;94923.06;;;10.38
71640;BMP280;60912;48.968;10.124;2024-02-26T10:15:25;94923.16;;;10.69
71640;BMP280;60912;48.968;10.124;2024-02-26T10:17:51;94928.06;;;10.80
71640;BMP280;60912;48.968;10.124;2024-02-26T10:20:17;94924.75;;;10.82
71640;BMP280;60912;48.968;10.124;2024-02-26T10:22:44;94937.59;;;10.98
71640;BMP280;60912;48.968;10.124;2024-02-26T10:25:09;94939.13;;;11.21
71640;BMP280;60912;48.968;10.124;2024-02-26T10:27:35;94939.53;;;11.58
71640;BMP280;60912;48.968;10.124;2024-02-26T10:30:04;94939.41;;;11.98
71640;BMP280;60912;48.968;10.124;2024-02-26T10:32:40;94940.34;;;12.24
71640;BMP280;60912;48.968;10.124;2024-02-26T10:35:08;94949.97;;;12.23
71640;BMP280;60912;48.968;10.124;2024-02-26T10:37:33;94947.72;;;12.64
71640;BMP280;60912;48.968;10.124;2024-02-26T10:39:59;94952.81;;;12.91
71640;BMP280;60912;48.968;10.124;2024-02-26T10:42:26;94953.06;;;13.18
71640;BMP280;60912;48.968;10.124;2024-02-26T10:44:51;94936.00;;;13.33
71640;BMP280;60912;48.968;10.124;2024-02-26T10:47:16;94943.94;;;13.27
71640;BMP280;60912;48.968;10.124;2024-02-26T10:49:46;94948.63;;;13.13
71640;BMP280;60912;48.968;10.124;2024-02-26T10:52:15;94943.44;;;13.54
71640;BMP280;60912;48.968;10.124;2024-02-26T10:54:41;94953.78;;;13.07
71640;BMP280;60912;48.968;10.124;2024-02-26T10:57:09;94944.44;;;13.12
71640;BMP280;60912;48.968;10.124;2024-02-26T10:59:34;94942.97;;;13.22
71640;BMP280;60912;48.968;10.124;2024-02-26T11:02:00;94946.09;;;13.17
71640;BMP280;60912;48.968;10.124;2024-02-26T11:04:26;94948.00;;;13.03
71640;BMP280;60912;48.968;10.124;2024-02-26T11:06:54;94953.66;;;13.16
71640;BMP280;60912;48.968;10.124;2024-02-26T11:09:22;94952.25;;;13.50
71640;BMP280;60912;48.968;10.124;2024-02-26T11:11:48;94949.91;;;13.58
71640;BMP280;60912;48.968;10.124;2024-02-26T11:14:15;94946.31;;;13.56
71640;BMP280;60912;48.968;10.124;2024-02-26T11:16:42;94947.78;;;13.57
71640;BMP280;60912;48.968;10.124;2024-02-26T11:19:09;94946.06;;;12.94
71640;BMP280;60912;48.968;10.124;2024-02-26T11:21:39;94938.91;;;12.56
71640;BMP280;60912;48.968;10.124;2024-02-26T11:24:08;94934.50;;;12.62
71640;BMP280;60912;48.968;10.124;2024-02-26T11:26:38;94928.03;;;12.93
71640;BMP280;60912;48.968;10.124;2024-02-26T11:29:05;94926.84;;;12.84
71640;BMP280;60912;48.968;10.124;2024-02-26T11:31:33;94928.50;;;12.77
71640;BMP280;60912;48.968;10.124;2024-02-26T11:33:59;94932.31;;;12.61
71640;BMP280;60912;48.968;10.124;2024-02-26T11:36:24;94930.78;;;12.69
71640;BMP280;60912;48.968;10.124;2024-02-26T11:38:50;94924.28;;;12.32
71640;BMP280;60912;48.968;10.124;2024-02-26T11:41:17;94919.66;;;12.46
71640;BMP280;60912;48.968;10.124;2024-02-26T11:44:00;94918.88;;;12.22
71640;BMP280;60912;48.968;10.124;2024-02-26T11:46:39;94918.00;;;12.20
71640;BMP280;60912;48.968;10.124;2024-02-26T11:51:56;94928.63;;;12.35
71640;BMP280;60912;48.968;10.124;2024-02-26T11:57:28;94929.41;;;12.47
71640;BMP280;60912;48.968;10.124;2024-02-26T12:00:16;94937.97;;;12.51
71640;BMP280;60912;48.968;10.124;2024-02-26T12:02:50;94938.25;;;12.46
71640;BMP280;60912;48.968;10.124;2024-02-26T12:05:22;94936.66;;;12.64
71640;BMP280;60912;48.968;10.124;2024-02-26T12:07:55;94942.91;;;12.64
71640;BMP280;60912;48.968;10.124;2024-02-26T12:12:58;94942.94;;;12.87
71640;BMP280;60912;48.968;10.124;2024-02-26T12:15:30;94944.41;;;12.88
71640;BMP280;60912;48.968;10.124;2024-02-26T12:17:56;94955.22;;;13.08
71640;BMP280;60912;48.968;10.124;2024-02-26T12:20:21;94954.25;;;12.92
71640;BMP280;60912;48.968;10.124;2024-02-26T12:22:47;94943.88;;;12.92
71640;BMP280;60912;48.968;10.124;2024-02-26T12:25:14;94950.91;;;13.05
71640;BMP280;60912;48.968;10.124;2024-02-26T12:27:39;94948.22;;;12.83
71640;BMP280;60912;48.968;10.124;2024-02-26T12:30:05;94946.75;;;12.71
71640;BMP280;60912;48.968;10.124;2024-02-26T12:32:31;94950.97;;;12.72
71640;BMP280;60912;48.968;10.124;2024-02-26T12:34:58;94949.19;;;12.76
71640;BMP280;60912;48.968;10.124;2024-02-26T12:37:25;94947.97;;;12.79
71640;BMP280;60912;48.968;10.124;2024-02-26T12:39:51;94954.81;;;12.78
71640;BMP280;60912;48.968;10.124;2024-02-26T12:42:16;94950.53;;;12.54
71640;BMP280;60912;48.968;10.124;2024-02-26T12:44:41;94957.44;;;12.65
71640;BMP280;60912;48.968;10.124;2024-02-26T12:47:07;94952.91;;;12.81
71640;BMP280;60912;48.968;10.124;2024-02-26T12:49:32;94958.56;;;12.83
71640;BMP280;60912;48.968;10.124;2024-02-26T12:51:57;94965.78;;;13.00
71640;BMP280;60912;48.968;10.124;2024-02-26T12:54:30;94972.03;;;12.77
71640;BMP280;60912;48.968;10.124;2024-02-26T12:57:15;94976.06;;;12.64
71640;BMP280;60912;48.968;10.124;2024-02-26T12:59:41;94974.13;;;12.67
71640;BMP280;60912;48.968;10.124;2024-02-26T13:02:07;94971.75;;;12.73
71640;BMP280;60912;48.968;10.124;2024-02-26T13:04:32;94971.94;;;12.65
71640;BMP280;60912;48.968;10.124;2024-02-26T13:06:59;94969.72;;;12.40
71640;BMP280;60912;48.968;10.124;2024-02-26T13:09:28;94963.84;;;12.46
71640;BMP280;60912;48.968;10.124;2024-02-26T13:11:54;94980.00;;;12.61
71640;BMP280;60912;48.968;10.124;2024-02-26T13:14:20;94984.06;;;12.49
71640;BMP280;60912;48.968;10.124;2024-02-26T13:16:55;94983.47;;;12.50
71640;BMP280;60912;48.968;10.124;2024-02-26T13:19:20;94986.47;;;12.54
71640;BMP280;60912;48.968;10.124;2024-02-26T13:21:46;94984.44;;;12.55
71640;BMP280;60912;48.968;10.124;2024-02-26T13:24:13;94996.44;;;12.59
71640;BMP280;60912;48.968;10.124;2024-02-26T13:26:38;95000.44;;;12.68
71640;BMP280;60912;48.968;10.124;2024-02-26T13:29:04;95005.09;;;12.65
71640;BMP280;60912;48.968;10.124;2024-02-26T13:31:30;95011.06;;;12.71
71640;BMP280;60912;48.968;10.124;2024-02-26T13:33:55;95003.72;;;12.64
71640;BMP280;60912;48.968;10.124;2024-02-26T13:36:22;94995.66;;;12.68
71640;BMP280;60912;48.968;10.124;2024-02-26T13:38:54;95002.44;;;12.56
71640;BMP280;60912;48.968;10.124;2024-02-26T13:41:20;95003.19;;;12.56
71640;BMP280;60912;48.968;10.124;2024-02-26T13:43:46;95004.97;;;12.52
71640;BMP280;60912;48.968;10.124;2024-02-26T13:46:12;95000.44;;;12.35
71640;BMP280;60912;48.968;10.124;2024-02-26T13:48:39;95008.38;;;12.40
71640;BMP280;60912;48.968;10.124;2024-02-26T13:51:04;95003.13;;;12.44
71640;BMP280;60912;48.968;10.124;2024-02-26T13:53:30;95007.50;;;12.59
71640;BMP280;60912;48.968;10.124;2024-02-26T13:55:55;95001.94;;;12.48
71640;BMP280;60912;48.968;10.124;2024-02-26T13:58:21;95010.59;;;12.54
71640;BMP280;60912;48.968;10.124;2024-02-26T14:00:49;95013.03;;;12.59
71640;BMP280;60912;48.968;10.124;2024-02-26T14:03:14;95011.59;;;12.58
71640;BMP280;60912;48.968;10.124;2024-02-26T14:05:41;95010.56;;;12.42
71640;BMP280;60912;48.968;10.124;2024-02-26T14:08:07;95008.16;;;12.36